Time;durP1;ratioP1;P1;durP2;ratioP2;P2;SDS_P1;SDS_P2;PMS_P1;PMS_P2;Temp;Humidity;BMP_temperature;BMP_pressure;BME280_temperature;BME280_humidity;BME280_pressure;Samples;Min_cycle;Max_cycle;Signal;HPM_P1;HPM_P2
2023/05/13 00:01:28;;;;;;;1.60;1.42;;;;;;;10.70;100.00;100058.03;4824516;29;20542;-93
2023/05/13 00:03:53;;;;;;;1.38;1.10;;;;;;;10.74;100.00;100057.94;4829683;29;20077;-93
2023/05/13 00:06:19;;;;;;;1.73;1.38;;;;;;;10.77;100.00;100049.50;4830569;29;20053;-92
2023/05/13 00:08:45;;;;;;;1.13;0.73;;;;;;;10.78;100.00;100058.63;4845499;29;20085;-93
2023/05/13 00:11:11;;;;;;;0.80;0.80;;;;;;;10.82;100.00;100059.31;4826012;29;20049;-92
2023/05/13 00:13:36;;;;;;;0.65;0.65;;;;;;;10.82;100.00;100050.97;4836487;29;20103;-94
2023/05/13 00:16:02;;;;;;;0.50;0.43;;;;;;;10.63;100.00;100024.94;4843357;29;20041;-94
2023/05/13 00:18:28;;;;;;;1.35;1.23;;;;;;;10.77;100.00;100055.06;4825951;29;20109;-94
2023/05/13 00:20:55;;;;;;;0.73;0.73;;;;;;;10.79;100.00;100054.63;4820383;29;20132;-93
2023/05/13 00:23:21;;;;;;;0.60;0.60;;;;;;;10.74;100.00;100035.75;4845918;29;20051;-94
2023/05/13 00:25:46;;;;;;;2.13;1.05;;;;;;;10.77;100.00;100048.72;4836860;29;20041;-93
2023/05/13 00:28:13;;;;;;;2.63;0.93;;;;;;;10.82;100.00;100042.66;4827150;29;20418;-93
2023/05/13 00:30:44;;;;;;;1.95;1.58;;;;;;;10.73;100.00;100034.19;4844320;29;20051;-92
2023/05/13 00:33:10;;;;;;;1.83;1.73;;;;;;;10.80;100.00;100055.41;4839471;29;20060;-93
2023/05/13 00:35:35;;;;;;;0.30;0.30;;;;;;;10.59;100.00;100031.81;4841160;29;20046;-93
2023/05/13 00:38:01;;;;;;;0.77;0.77;;;;;;;10.80;100.00;100058.94;4836771;29;20042;-93
2023/05/13 00:40:27;;;;;;;1.83;1.45;;;;;;;10.86;100.00;100056.44;4840353;29;20569;-93
2023/05/13 00:42:53;;;;;;;0.47;0.47;;;;;;;10.82;100.00;100055.75;4844119;29;20049;-93
2023/05/13 00:45:19;;;;;;;0.68;0.68;;;;;;;10.75;100.00;100059.50;4829940;29;20049;-94
2023/05/13 00:47:47;;;;;;;1.25;1.00;;;;;;;10.70;100.00;100058.03;4821838;29;20140;-93
2023/05/13 00:50:13;;;;;;;0.30;0.30;;;;;;;10.74;100.00;100069.03;4829823;29;20523;-93
2023/05/13 00:52:40;;;;;;;2.80;1.65;;;;;;;10.76;100.00;100069.38;4821825;29;20083;-93
2023/05/13 00:55:07;;;;;;;1.77;1.65;;;;;;;10.71;100.00;100058.81;4845947;29;20053;-93
2023/05/13 00:57:34;;;;;;;1.35;1.10;;;;;;;10.77;100.00;100073.69;4828402;29;20106;-93
2023/05/13 01:00:00;;;;;;;1.83;1.73;;;;;;;10.72;100.00;100072.25;4841364;29;20310;-93
2023/05/13 01:05:37;;;;;;;1.23;1.13;;;;;;;10.72;100.00;100077.00;4879367;29;20121;-92
2023/05/13 01:08:27;;;;;;;1.80;1.20;;;;;;;10.72;100.00;100072.25;4849794;29;20049;-93
2023/05/13 01:11:01;;;;;;;1.25;1.05;;;;;;;10.68;100.00;100070.78;4860250;29;20077;-94
2023/05/13 01:13:28;;;;;;;;;;;;;;;10.75;100.00;100082.47;4880743;29;20152;-95
2023/05/13 01:15:57;;;;;;;0.77;0.77;;;;;;;10.73;100.00;100073.03;4871383;29;19920;-94
2023/05/13 01:18:28;;;;;;;1.00;0.88;;;;;;;10.71;100.00;100081.00;4862631;29;20046;-94
2023/05/13 01:20:54;;;;;;;2.88;2.03;;;;;;;10.73;100.00;100079.34;4846593;29;20045;-94
2023/05/13 01:23:21;;;;;;;0.75;0.63;;;;;;;10.72;100.00;100079.78;4844164;29;20034;-92
2023/05/13 01:25:49;;;;;;;0.70;0.70;;;;;;;10.76;100.00;100088.78;4843312;29;20056;-93
2023/05/13 01:28:15;;;;;;;1.98;1.88;;;;;;;10.70;100.00;100085.00;4867955;29;20037;-93
2023/05/13 01:30:46;;;;;;;0.77;0.77;;;;;;;10.71;100.00;100089.34;4846722;29;20053;-94
2023/05/13 01:33:13;;;;;;;1.45;1.35;;;;;;;10.52;100.00;100057.72;4846410;29;20045;-93
2023/05/13 01:35:39;;;;;;;0.55;0.55;;;;;;;10.63;100.00;100083.19;4877387;29;20132;-92
2023/05/13 01:38:06;;;;;;;0.43;0.43;;;;;;;10.63;100.00;100085.19;4878087;29;20059;-92
2023/05/13 01:40:33;;;;;;;0.80;0.80;;;;;;;10.54;100.00;100088.59;4860516;29;20076;-92
2023/05/13 01:43:04;;;;;;;1.13;0.85;;;;;;;10.55;100.00;100083.81;4852272;29;20045;-93
2023/05/13 01:45:31;;;;;;;1.63;1.52;;;;;;;10.53;100.00;100091.78;4841517;29;20048;-95
2023/05/13 01:47:57;;;;;;;1.27;1.02;;;;;;;10.53;100.00;100089.00;4831357;29;20505;-95
2023/05/13 01:50:25;;;;;;;5.38;2.28;;;;;;;10.43;100.00;100070.66;4860247;29;20188;-93
2023/05/13 01:52:51;;;;;;;1.08;0.82;;;;;;;10.36;100.00;100054.19;4861985;29;20137;-94
2023/05/13 01:55:17;;;;;;;0.73;0.60;;;;;;;10.57;100.00;100087.69;4823979;29;20405;-94
2023/05/13 01:57:45;;;;;;;3.10;2.08;;;;;;;10.58;100.00;100088.50;4829343;29;20045;-93
2023/05/13 02:00:11;;;;;;;2.47;1.55;;;;;;;10.53;100.00;100089.00;4824956;29;20615;-94
2023/05/13 02:02:39;;;;;;;0.70;0.70;;;;;;;10.54;100.00;100090.56;4848137;29;20422;-93
2023/05/13 02:05:05;;;;;;;0.63;0.63;;;;;;;10.46;100.00;100075.31;4829073;29;20041;-93
2023/05/13 02:07:33;;;;;;;0.38;0.38;;;;;;;10.55;100.00;100094.91;4831488;29;20073;-93
2023/05/13 02:09:59;;;;;;;0.85;0.73;;;;;;;10.54;100.00;100094.13;4845404;29;20094;-92
2023/05/13 02:12:25;;;;;;;0.90;0.73;;;;;;;10.48;100.00;100075.66;4842655;29;20037;-93
2023/05/13 02:14:53;;;;;;;1.50;0.98;;;;;;;10.51;100.00;100095.00;4832573;29;20044;-93
2023/05/13 02:17:19;;;;;;;1.55;0.60;;;;;;;10.46;100.00;100091.97;4827426;29;20113;-96
2023/05/13 02:19:45;;;;;;;2.10;1.63;;;;;;;10.45;100.00;100093.16;4850198;29;20120;-93
2023/05/13 02:22:10;;;;;;;0.28;0.28;;;;;;;10.49;100.00;100096.63;4840744;29;20575;-93
2023/05/13 02:24:39;;;;;;;1.35;0.60;;;;;;;10.49;100.00;100091.09;4840167;29;20418;-94
2023/05/13 02:27:07;;;;;;;2.78;1.80;;;;;;;10.47;100.00;100088.00;4833468;29;20101;-93
2023/05/13 02:29:33;;;;;;;1.27;1.15;;;;;;;10.47;100.00;100099.88;4831697;29;20064;-94
2023/05/13 02:31:59;;;;;;;1.25;1.20;;;;;;;10.41;100.00;100095.25;4856161;29;20124;-93
2023/05/13 02:34:25;;;;;;;1.83;1.38;;;;;;;10.44;100.00;100103.47;4848214;29;20049;-93
2023/05/13 02:36:52;;;;;;;1.20;1.10;;;;;;;10.45;100.00;100095.94;4827264;29;20064;-94
2023/05/13 02:39:18;;;;;;;0.75;0.75;;;;;;;10.29;100.00;100077.34;4827376;29;20506;-95
2023/05/13 02:41:43;;;;;;;1.30;1.17;;;;;;;10.45;100.00;100095.94;4828056;29;20045;-94
2023/05/13 02:44:10;;;;;;;1.05;0.93;;;;;;;10.45;100.00;100099.50;4837334;29;20041;-93
2023/05/13 02:46:36;;;;;;;0.85;0.55;;;;;;;10.44;100.00;100099.94;4846063;29;20042;-95
2023/05/13 02:49:02;;;;;;;0.45;0.45;;;;;;;10.44;100.00;100103.47;4842476;29;20528;-94
2023/05/13 02:51:30;;;;;;;0.68;0.57;;;;;;;10.43;100.00;100106.72;4826750;29;20589;-95
2023/05/13 02:53:56;;;;;;;2.78;1.10;;;;;;;10.47;100.00;100101.84;4850071;29;20139;-94
2023/05/13 02:56:22;;;;;;;1.75;0.85;;;;;;;10.49;100.00;100102.19;4827749;29;20200;-95
2023/05/13 02:58:48;;;;;;;0.80;0.80;;;;;;;10.43;100.00;100093.63;4861210;29;20049;-93
2023/05/13 03:01:14;;;;;;;0.60;0.60;;;;;;;10.44;100.00;100116.56;4845428;29;20513;-93
2023/05/13 03:03:39;;;;;;;1.17;1.10;;;;;;;10.41;100.00;100111.91;4838800;29;20495;-93
2023/05/13 03:06:05;;;;;;;1.38;0.70;;;;;;;10.43;100.00;100104.72;4823334;29;20056;-93
2023/05/13 03:08:31;;;;;;;1.10;0.85;;;;;;;10.46;100.00;100103.06;4819679;29;20076;-95
2023/05/13 03:10:57;;;;;;;1.88;1.45;;;;;;;10.40;100.00;100119.44;4823883;29;20046;-95
2023/05/13 03:13:23;;;;;;;2.53;1.98;;;;;;;10.40;100.00;100121.41;4825719;29;20606;-95
2023/05/13 03:15:49;;;;;;;0.45;0.45;;;;;;;10.40;100.00;100107.56;4853801;29;20046;-94
2023/05/13 03:18:15;;;;;;;1.33;1.25;;;;;;;10.36;100.00;100104.88;4838648;29;20451;-94
2023/05/13 03:20:41;;;;;;;1.20;1.15;;;;;;;10.41;100.00;100121.00;4833901;29;20073;-94
2023/05/13 03:23:07;;;;;;;4.47;3.15;;;;;;;10.40;100.00;100111.09;4826974;29;20073;-94
2023/05/13 03:25:33;;;;;;;1.73;1.00;;;;;;;10.39;100.00;100119.88;4851595;29;20045;-93
2023/05/13 03:27:58;;;;;;;1.10;1.10;;;;;;;10.37;100.00;100127.84;4850521;29;20096;-92
2023/05/13 03:30:28;;;;;;;1.20;1.10;;;;;;;10.39;100.00;100122.66;4809128;29;20057;-93
2023/05/13 03:33:08;;;;;;;1.00;0.93;;;;;;;10.34;100.00;100115.63;4825062;29;20045;-94
2023/05/13 03:35:34;;;;;;;1.02;0.95;;;;;;;10.33;100.00;100127.94;4838185;29;20045;-94
2023/05/13 03:38:00;;;;;;;1.55;1.05;;;;;;;10.38;100.00;100130.19;4817916;29;20060;-92
2023/05/13 03:40:26;;;;;;;1.38;1.27;;;;;;;10.37;100.00;100127.84;4834403;29;20046;-93
2023/05/13 03:42:52;;;;;;;2.22;1.55;;;;;;;10.42;100.00;100130.88;4825565;29;20128;-94
2023/05/13 03:45:20;;;;;;;1.95;1.77;;;;;;;10.43;100.00;100126.13;4822220;29;20130;-94
2023/05/13 03:47:49;;;;;;;1.13;0.68;;;;;;;10.38;100.00;100124.66;4823564;29;20054;-94
2023/05/13 03:50:16;;;;;;;2.25;1.45;;;;;;;10.43;100.00;100137.22;4823079;29;20061;-94
2023/05/13 03:52:43;;;;;;;2.38;1.52;;;;;;;10.41;100.00;100136.84;4852771;29;20124;-94
2023/05/13 03:55:09;;;;;;;4.38;2.08;;;;;;;10.44;100.00;100136.75;4834573;29;20065;-93
2023/05/13 03:57:35;;;;;;;1.55;1.45;;;;;;;10.43;100.00;100145.53;4834041;29;20510;-93
2023/05/13 04:00:02;;;;;;;1.38;1.27;;;;;;;10.43;100.00;100135.22;4820970;29;20586;-95
2023/05/13 04:02:28;;;;;;;0.38;0.38;;;;;;;10.42;100.00;100135.66;4835334;29;20144;-94
2023/05/13 04:04:54;;;;;;;1.25;1.17;;;;;;;10.36;100.00;100138.16;4829012;29;20153;-93
2023/05/13 04:07:19;;;;;;;3.85;1.75;;;;;;;10.39;100.00;100147.59;4828044;29;21495;-94
2023/05/13 04:09:45;;;;;;;1.90;1.05;;;;;;;10.41;100.00;100139.63;4827290;29;20054;-93
2023/05/13 04:12:11;;;;;;;10.55;3.03;;;;;;;10.39;100.00;100150.38;4826715;29;20042;-94
2023/05/13 04:14:38;;;;;;;0.77;0.77;;;;;;;10.43;100.00;100154.63;4824119;29;20049;-94
2023/05/13 04:17:04;;;;;;;1.45;1.27;;;;;;;10.39;100.00;100158.69;4824930;29;20049;-95
2023/05/13 04:19:30;;;;;;;0.70;0.70;;;;;;;10.41;100.00;100157.03;4818174;29;20061;-93
2023/05/13 04:21:55;;;;;;;1.40;1.30;;;;;;;10.40;100.00;100160.25;4849037;29;20383;-94
2023/05/13 04:24:22;;;;;;;0.30;0.30;;;;;;;10.41;100.00;100159.03;4857144;29;20045;-94
2023/05/13 04:26:48;;;;;;;0.50;0.50;;;;;;;10.37;100.00;100150.81;4837588;29;20413;-94
2023/05/13 04:29:16;;;;;;;1.10;0.85;;;;;;;10.34;100.00;100153.66;4831229;29;20495;-94
2023/05/13 04:31:43;;;;;;;0.85;0.85;;;;;;;10.40;100.00;100163.00;4839130;29;20463;-94
2023/05/13 04:34:09;;;;;;;1.20;1.20;;;;;;;10.35;100.00;100169.88;4835291;29;20184;-94
2023/05/13 04:36:35;;;;;;;0.52;0.52;;;;;;;10.40;100.00;100165.78;4834075;29;20038;-94
2023/05/13 04:39:00;;;;;;;1.63;1.38;;;;;;;10.41;100.00;100156.25;4835362;29;20421;-93
2023/05/13 04:41:26;;;;;;;5.90;1.50;;;;;;;10.23;100.00;100140.06;4826205;29;20055;-94
2023/05/13 04:43:52;;;;;;;1.50;1.05;;;;;;;10.40;100.00;100165.78;4839831;29;20050;-93
2023/05/13 04:46:17;;;;;;;2.28;2.00;;;;;;;10.37;100.00;100166.66;4836645;29;20046;-95
2023/05/13 04:48:47;;;;;;;0.70;0.70;;;;;;;10.41;100.00;100179.22;4818791;29;20053;-93
2023/05/13 04:51:14;;;;;;;5.22;2.45;;;;;;;10.38;100.00;100177.31;4836900;29;20053;-95
2023/05/13 04:53:40;;;;;;;0.85;0.85;;;;;;;10.36;100.00;100176.97;4821720;29;20126;-94
2023/05/13 04:56:07;;;;;;;0.98;0.90;;;;;;;10.25;100.00;100166.13;4821381;29;20117;-94
2023/05/13 04:58:33;;;;;;;1.45;1.35;;;;;;;10.32;100.00;100175.47;4819539;29;20080;-95
2023/05/13 05:00:58;;;;;;;2.10;1.95;;;;;;;10.36;100.00;100181.72;4838099;29;20046;-95
2023/05/13 05:03:24;;;;;;;0.32;0.32;;;;;;;10.33;100.00;100177.84;4829242;29;20049;-94
2023/05/13 05:05:50;;;;;;;1.60;1.17;;;;;;;10.39;100.00;100175.34;4819982;29;20429;-95
2023/05/13 05:08:20;;;;;;;1.30;1.17;;;;;;;10.29;100.00;100172.38;4832842;29;20463;-95
2023/05/13 05:10:48;;;;;;;1.00;0.90;;;;;;;10.36;100.00;100184.50;4836538;29;20042;-95
2023/05/13 05:13:14;;;;;;;0.80;0.80;;;;;;;10.41;100.00;100184.00;4815294;29;20133;-94
2023/05/13 05:15:42;;;;;;;1.73;1.10;;;;;;;10.40;100.00;100190.75;4830663;29;20084;-94
2023/05/13 05:18:08;;;;;;;0.73;0.73;;;;;;;10.44;100.00;100194.22;4829314;29;20050;-92
2023/05/13 05:20:39;;;;;;;1.33;1.27;;;;;;;10.46;100.00;100200.91;4826390;29;20077;-94
2023/05/13 05:23:09;;;;;;;0.20;0.20;;;;;;;10.33;100.00;100185.38;4816258;29;20133;-92
2023/05/13 05:25:38;;;;;;;0.93;0.93;;;;;;;10.40;100.00;100197.06;4829665;29;20046;-93
2023/05/13 05:28:04;;;;;;;0.40;0.40;;;;;;;10.43;100.00;100199.00;4812614;29;20038;-94
2023/05/13 05:30:38;;;;;;;1.38;1.27;;;;;;;10.40;100.00;100199.06;4827331;29;20755;-94
2023/05/13 05:33:07;;;;;;;0.75;0.75;;;;;;;10.29;100.00;100202.88;4830306;29;20538;-94
2023/05/13 05:35:37;;;;;;;0.73;0.73;;;;;;;10.34;100.00;100203.56;4813194;29;20091;-93
2023/05/13 05:38:06;;;;;;;1.15;1.05;;;;;;;10.32;100.00;100200.44;4821169;29;20045;-94
2023/05/13 05:40:38;;;;;;;0.85;0.85;;;;;;;10.20;100.00;100174.97;4819726;29;20049;-95
2023/05/13 05:43:04;;;;;;;0.93;0.85;;;;;;;10.38;100.00;100196.75;4816077;29;21296;-95
2023/05/13 05:45:30;;;;;;;0.40;0.40;;;;;;;10.33;100.00;100200.00;4817281;29;20082;-95
2023/05/13 05:47:56;;;;;;;1.10;1.08;;;;;;;10.27;100.00;100185.13;4819685;29;20050;-94
2023/05/13 05:50:22;;;;;;;0.40;0.38;;;;;;;10.25;100.00;100187.53;4819851;29;20041;-95
2023/05/13 05:52:48;;;;;;;3.38;1.70;;;;;;;10.35;100.00;100194.06;4805144;29;20046;-94
2023/05/13 05:55:14;;;;;;;0.88;0.88;;;;;;;10.46;100.00;100205.66;4847741;29;20090;-94
2023/05/13 05:57:40;;;;;;;1.45;1.23;;;;;;;10.45;100.00;100196.56;4821491;29;20054;-94
2023/05/13 06:00:06;;;;;;;1.15;0.75;;;;;;;10.52;100.00;100207.47;4822453;29;20089;-95
2023/05/13 06:02:41;;;;;;;0.22;0.22;;;;;;;10.53;100.00;100211.03;4820823;29;20762;-94
2023/05/13 06:05:08;;;;;;;0.00;0.00;;;;;;;10.51;100.00;100194.84;4823911;29;20041;-93
2023/05/13 06:07:36;;;;;;;0.55;0.55;;;;;;;10.49;100.00;100199.25;4819578;29;20046;-95
2023/05/13 06:10:01;;;;;;;0.80;0.80;;;;;;;10.50;100.00;100211.91;4820926;29;20471;-94
2023/05/13 06:12:28;;;;;;;1.73;1.63;;;;;;;10.33;100.00;100182.59;4836170;29;20049;-94
2023/05/13 06:14:55;;;;;;;2.50;1.10;;;;;;;10.52;100.00;100209.47;4818617;29;20129;-94
2023/05/13 06:17:20;;;;;;;1.15;0.88;;;;;;;10.53;100.00;100209.06;4822722;29;20050;-92
2023/05/13 06:19:46;;;;;;;2.17;0.93;;;;;;;10.48;100.00;100189.38;4819710;29;20145;-94
2023/05/13 06:22:11;;;;;;;1.95;1.83;;;;;;;10.56;100.00;100210.94;4835306;29;20436;-94
2023/05/13 06:24:38;;;;;;;0.85;0.75;;;;;;;10.57;100.00;100215.28;4822615;29;20410;-93
2023/05/13 06:27:05;;;;;;;1.45;1.35;;;;;;;10.63;100.00;100219.13;4828564;29;20124;-93
2023/05/13 06:29:31;;;;;;;1.48;1.33;;;;;;;10.72;100.00;100218.50;4844723;29;20052;-94
2023/05/13 06:31:57;;;;;;;1.77;1.02;;;;;;;10.73;100.00;100217.28;4812144;29;20053;-94
2023/05/13 06:34:22;;;;;;;1.17;0.95;;;;;;;10.75;100.00;100209.31;4846300;29;20065;-92
2023/05/13 06:36:48;;;;;;;0.73;0.73;;;;;;;10.84;100.00;100230.91;4843192;29;20046;-93
2023/05/13 06:39:14;;;;;;;1.52;1.42;;;;;;;10.86;100.00;100220.94;4817080;29;20050;-92
2023/05/13 06:41:40;;;;;;;3.58;2.10;;;;;;;10.88;100.00;100231.63;4825195;29;20045;-92
2023/05/13 06:44:11;;;;;;;3.63;1.45;;;;;;;10.90;100.00;100229.94;4848472;29;20189;-91
2023/05/13 06:46:39;;;;;;;1.25;1.20;;;;;;;10.75;100.00;100210.13;4817296;29;20314;-91
2023/05/13 06:49:05;;;;;;;1.17;1.15;;;;;;;10.92;100.00;100235.84;4823622;29;20914;-91
2023/05/13 06:51:31;;;;;;;0.95;0.95;;;;;;;10.84;100.00;100222.59;4830519;29;20094;-91
2023/05/13 06:53:57;;;;;;;1.70;1.40;;;;;;;10.98;100.00;100249.97;4821821;29;20124;-92
2023/05/13 06:56:23;;;;;;;1.17;1.08;;;;;;;10.98;100.00;100241.66;4827634;29;20049;-91
2023/05/13 06:58:49;;;;;;;1.88;1.75;;;;;;;10.95;100.00;100251.63;4822994;29;20410;-90
2023/05/13 07:01:18;;;;;;;2.50;2.33;;;;;;;10.97;100.00;100254.75;4836119;29;20049;-92
2023/05/13 07:03:44;;;;;;;1.58;1.25;;;;;;;10.94;100.00;100261.16;4840396;29;20052;-91
2023/05/13 07:06:10;;;;;;;1.42;1.35;;;;;;;10.94;100.00;100254.84;4827544;29;20118;-91
2023/05/13 07:08:36;;;;;;;1.73;1.42;;;;;;;10.95;100.00;100257.19;4832195;29;20041;-92
2023/05/13 07:11:02;;;;;;;1.55;1.48;;;;;;;10.93;100.00;100259.59;4826960;29;20090;-93
2023/05/13 07:13:28;;;;;;;2.63;1.65;;;;;;;10.89;100.00;100264.47;4826619;29;20046;-91
2023/05/13 07:15:54;;;;;;;3.05;1.10;;;;;;;10.95;100.00;100265.50;4835523;29;20045;-92
2023/05/13 07:18:20;;;;;;;1.13;1.13;;;;;;;10.94;100.00;100254.84;4836880;29;20049;-91
2023/05/13 07:20:46;;;;;;;1.23;1.13;;;;;;;11.02;100.00;100245.91;4851919;29;20053;-92
2023/05/13 07:23:11;;;;;;;2.75;2.55;;;;;;;10.99;100.00;100246.78;4821222;29;20053;-91
2023/05/13 07:25:37;;;;;;;2.72;1.98;;;;;;;11.18;100.00;100262.53;4820692;29;20049;-93
2023/05/13 07:28:03;;;;;;;1.17;1.08;;;;;;;11.34;100.00;100272.84;4862100;29;20524;-92
2023/05/13 07:30:29;;;;;;;0.88;0.85;;;;;;;11.43;100.00;100266.66;4826010;29;20136;-92
2023/05/13 07:32:55;;;;;;;1.67;1.25;;;;;;;11.52;100.00;100267.63;4816507;29;20034;-91
2023/05/13 07:35:20;;;;;;;1.80;1.70;;;;;;;11.61;100.00;100264.97;4833143;29;20056;-91
2023/05/13 07:37:46;;;;;;;0.55;0.50;;;;;;;11.66;100.00;100269.22;4832725;29;20582;-93
2023/05/13 07:40:40;;;;;;;1.15;1.10;;;;;;;11.63;100.00;100265.31;4831361;29;20064;-93
2023/05/13 07:43:05;;;;;;;1.75;1.48;;;;;;;11.53;100.00;100246.94;4853226;29;20052;-93
2023/05/13 07:45:31;;;;;;;1.85;1.75;;;;;;;11.70;100.00;100242.88;4845534;29;20046;-92
2023/05/13 07:47:57;;;;;;;2.17;1.25;;;;;;;11.87;100.00;100265.09;4831395;29;20053;-92
2023/05/13 07:50:22;;;;;;;1.75;1.65;;;;;;;11.96;100.00;100270.78;4840422;29;20045;-92
2023/05/13 07:52:50;;;;;;;1.42;1.33;;;;;;;11.68;100.00;100241.78;4831327;29;20502;-92
2023/05/13 07:55:16;;;;;;;1.42;1.20;;;;;;;11.86;100.00;100249.63;4841313;29;20094;-91
2023/05/13 07:57:41;;;;;;;0.80;0.80;;;;;;;12.01;100.00;100248.03;4843498;29;20567;-93
2023/05/13 08:00:07;;;;;;;4.30;1.65;;;;;;;12.07;100.00;100258.16;4839205;29;20054;-93
2023/05/13 08:02:38;;;;;;;1.00;1.00;;;;;;;12.14;100.00;100269.06;4854368;29;20395;-93
2023/05/13 08:05:05;;;;;;;0.60;0.60;;;;;;;12.05;100.00;100254.25;4824805;29;20049;-95
2023/05/13 08:07:30;;;;;;;0.45;0.45;;;;;;;12.08;100.00;100254.16;4852129;29;20049;-94
2023/05/13 08:09:56;;;;;;;0.75;0.75;;;;;;;12.17;100.00;100258.28;4827138;29;20045;-93
2023/05/13 08:12:21;;;;;;;2.83;2.35;;;;;;;12.25;100.00;100287.44;4841036;29;20064;-94
2023/05/13 08:14:47;;;;;;;0.68;0.68;;;;;;;12.22;100.00;100271.63;4826095;29;20129;-96
2023/05/13 08:17:12;;;;;;;1.15;1.08;;;;;;;12.13;100.00;100270.25;4839885;29;20089;-94
2023/05/13 08:19:39;;;;;;;0.52;0.52;;;;;;;12.13;100.00;100267.47;4852810;29;20418;-94
2023/05/13 08:22:04;;;;;;;1.17;1.08;;;;;;;12.20;100.00;100282.41;4860100;29;20514;-92
2023/05/13 08:24:30;;;;;;;0.93;0.93;;;;;;;12.27;100.00;100299.66;4841898;29;20137;-93
2023/05/13 08:26:55;;;;;;;1.55;1.45;;;;;;;12.19;100.00;100291.97;4862253;29;20049;-93
2023/05/13 08:29:21;;;;;;;1.45;1.05;;;;;;;12.18;100.00;100284.84;4852246;29;20045;-93
2023/05/13 08:31:46;;;;;;;1.45;1.35;;;;;;;12.31;100.00;100305.13;4844504;29;20097;-93
2023/05/13 08:34:12;;;;;;;1.00;0.98;;;;;;;12.21;100.00;100276.41;4874806;29;20061;-94
2023/05/13 08:36:38;;;;;;;1.13;1.05;;;;;;;12.02;100.00;100269.00;4851254;29;20038;-94
2023/05/13 08:39:03;;;;;;;1.58;1.38;;;;;;;12.16;100.00;100279.75;4856771;29;20053;-93
2023/05/13 08:41:32;;;;;;;0.77;0.73;;;;;;;12.21;100.00;100281.97;4823407;29;20042;-93
2023/05/13 08:43:58;;;;;;;3.97;2.70;;;;;;;12.13;100.00;100286.19;4841310;29;20090;-92
2023/05/13 08:46:28;;;;;;;0.55;0.55;;;;;;;12.01;100.00;100271.00;4822019;29;20081;-94
2023/05/13 08:48:54;;;;;;;1.60;1.10;;;;;;;12.20;100.00;100307.44;4827368;29;20048;-93
2023/05/13 08:51:20;;;;;;;1.70;1.58;;;;;;;12.05;100.00;100302.28;4834556;29;20541;-92
2023/05/13 08:53:46;;;;;;;1.50;1.25;;;;;;;12.08;100.00;100308.97;4858664;29;20057;-94
2023/05/13 08:56:12;;;;;;;1.63;1.52;;;;;;;11.87;100.00;100262.31;4851308;29;20037;-95
2023/05/13 08:58:38;;;;;;;1.95;1.15;;;;;;;12.00;100.00;100294.50;4856609;29;20060;-92
2023/05/13 09:01:04;;;;;;;0.88;0.88;;;;;;;11.82;100.00;100269.19;4840117;29;20045;-93
2023/05/13 09:03:30;;;;;;;3.47;3.17;;;;;;;12.08;100.00;100298.63;4840391;29;20067;-93
2023/05/13 09:05:59;;;;;;;2.13;1.73;;;;;;;12.15;100.00;100297.63;4830372;29;20495;-94
2023/05/13 09:08:25;;;;;;;2.55;2.35;;;;;;;12.20;100.00;100304.66;4854966;29;20045;-93
2023/05/13 09:10:50;;;;;;;2.38;2.28;;;;;;;12.17;100.00;100305.56;4835481;29;20046;-90
2023/05/13 09:13:17;;;;;;;1.73;1.42;;;;;;;12.02;100.00;100286.47;4821262;29;20042;-93
2023/05/13 09:15:43;;;;;;;2.65;2.30;;;;;;;12.19;100.00;100297.53;4825689;29;20148;-92
2023/05/13 09:18:09;;;;;;;1.55;1.20;;;;;;;12.30;100.00;100306.34;4846416;29;20045;-91
2023/05/13 09:20:36;;;;;;;0.98;0.60;;;;;;;12.35;100.00;100289.09;4843384;29;20049;-93
2023/05/13 09:23:10;;;;;;;0.85;0.85;;;;;;;12.54;100.00;100297.25;4861037;29;20037;-92
2023/05/13 09:25:37;;;;;;;2.67;0.65;;;;;;;12.63;100.00;100283.47;4829822;29;20069;-92
2023/05/13 09:28:04;;;;;;;2.65;2.33;;;;;;;12.69;100.00;100297.63;4846024;29;20421;-93
2023/05/13 09:30:33;;;;;;;3.03;2.13;;;;;;;12.72;100.00;100279.22;4832280;29;20063;-95
2023/05/13 09:33:09;;;;;;;1.92;1.83;;;;;;;12.79;100.00;100270.66;4840867;29;20049;-93
2023/05/13 09:35:37;;;;;;;1.65;1.55;;;;;;;13.09;100.00;100292.34;4841648;29;20041;-92
2023/05/13 09:38:19;;;;;;;1.95;1.75;;;;;;;13.12;100.00;100301.84;4847274;29;20092;-93
2023/05/13 09:40:58;;;;;;;2.55;1.90;;;;;;;13.11;100.00;100294.69;4862231;29;20486;-94
2023/05/13 09:43:34;;;;;;;2.13;1.95;;;;;;;12.96;100.00;100300.72;4847652;29;20045;-92
2023/05/13 09:46:03;;;;;;;0.90;0.90;;;;;;;13.06;100.00;100305.16;4841577;29;20045;-92
2023/05/13 09:48:31;;;;;;;2.95;2.65;;;;;;;12.95;100.00;100293.56;4843006;29;20085;-92
2023/05/13 09:50:58;;;;;;;1.67;1.58;;;;;;;12.98;100.00;100270.41;4834097;29;20045;-93
2023/05/13 09:53:24;;;;;;;1.25;1.13;;;;;;;13.11;100.00;100297.47;4839893;29;20084;-92
2023/05/13 09:55:51;;;;;;;2.42;2.30;;;;;;;13.20;100.00;100305.94;4841898;29;20036;-91
2023/05/13 09:58:19;;;;;;;3.45;1.77;;;;;;;13.07;100.00;100301.13;4824931;29;20054;-91
2023/05/13 10:00:45;;;;;;;1.45;1.20;;;;;;;12.99;100.00;100305.38;4851831;29;20042;-92
2023/05/13 10:03:11;;;;;;;1.27;1.17;;;;;;;13.17;100.00;100306.84;4829412;29;20502;-91
2023/05/13 10:05:38;;;;;;;3.22;1.77;;;;;;;12.98;100.00;100272.44;4846659;29;20045;-91
2023/05/13 10:08:04;;;;;;;2.13;1.92;;;;;;;13.01;100.00;100291.81;4859787;29;20038;-92
2023/05/13 10:10:31;;;;;;;2.60;1.95;;;;;;;13.04;100.00;100302.03;4866896;29;20080;-91
2023/05/13 10:12:59;;;;;;;1.00;1.00;;;;;;;13.02;100.00;100289.81;4857041;29;20037;-92
2023/05/13 10:15:25;;;;;;;2.97;2.75;;;;;;;12.82;100.00;100264.97;4842254;29;20045;-93
2023/05/13 10:17:51;;;;;;;2.22;1.98;;;;;;;12.97;100.00;100280.00;4831200;29;20052;-92
2023/05/13 10:20:17;;;;;;;3.28;2.58;;;;;;;13.10;100.00;100293.94;4843684;29;20090;-91
2023/05/13 10:22:48;;;;;;;1.20;1.10;;;;;;;13.11;100.00;100272.41;4861433;29;20085;-94
2023/05/13 10:25:15;;;;;;;1.73;1.63;;;;;;;13.29;100.00;100283.75;4837466;29;20044;-91
2023/05/13 10:27:42;;;;;;;1.70;1.58;;;;;;;13.34;100.00;100267.25;4821899;29;20049;-92
2023/05/13 10:30:09;;;;;;;4.10;1.40;;;;;;;13.43;100.00;100274.91;4854644;29;20314;-92
2023/05/13 10:32:37;;;;;;;1.65;1.48;;;;;;;13.38;100.00;100248.41;4842971;29;20431;-91
2023/05/13 10:35:22;;;;;;;3.05;2.78;;;;;;;13.60;100.00;100270.72;4853847;29;20053;-91
2023/05/13 10:38:08;;;;;;;1.00;0.95;;;;;;;13.69;100.00;100284.75;4856163;29;20076;-91
2023/05/13 10:40:52;;;;;;;1.70;1.50;;;;;;;13.88;100.00;100291.22;4825318;29;20079;-91
2023/05/13 10:43:20;;;;;;;3.78;2.90;;;;;;;13.90;100.00;100292.34;4851160;29;20085;-91
2023/05/13 10:45:47;;;;;;;2.95;2.00;;;;;;;13.74;100.00;100275.81;4846978;29;20053;-91
2023/05/13 10:48:14;;;;;;;1.95;1.85;;;;;;;13.77;100.00;100280.47;4864249;29;20040;-92
2023/05/13 10:50:56;;;;;;;2.30;1.70;;;;;;;13.78;100.00;100276.44;4841843;29;20486;-93
2023/05/13 10:53:27;;;;;;;2.33;1.67;;;;;;;14.00;100.00;100290.38;4841767;29;20167;-92
2023/05/13 10:55:56;;;;;;;1.98;1.38;;;;;;;13.92;100.00;100264.78;4816909;29;20221;-95
2023/05/13 10:58:36;;;;;;;1.85;1.27;;;;;;;14.13;100.00;100273.59;4836845;29;20049;-92
2023/05/13 11:01:25;;;;;;;5.10;3.10;;;;;;;14.17;100.00;100258.28;4844767;29;20042;-94
2023/05/13 11:03:58;;;;;;;2.70;1.88;;;;;;;14.46;100.00;100291.47;4848332;29;20046;-94
2023/05/13 11:06:28;;;;;;;4.68;2.25;;;;;;;14.16;100.00;100256.69;4839483;29;20069;-93
2023/05/13 11:08:54;;;;;;;4.10;1.58;;;;;;;14.48;100.00;100278.63;4854394;29;20094;-93
2023/05/13 11:11:19;;;;;;;1.15;1.08;;;;;;;14.66;100.00;100294.69;4843012;29;20652;-93
2023/05/13 11:13:45;;;;;;;2.92;2.35;;;;;;;14.87;100.00;100293.84;4856071;29;20056;-93
2023/05/13 11:16:14;;;;;;;2.33;1.80;;;;;;;15.01;100.00;100266.53;4837003;29;20816;-92
2023/05/13 11:18:40;;;;;;;1.50;0.98;;;;;;;15.11;100.00;100268.13;4840537;29;20510;-93
2023/05/13 11:21:06;;;;;;;1.50;1.40;;;;;;;15.37;100.00;100292.53;4830716;29;20137;-93